Ampthill, Virginia
Current Conditions -  °F | °C
As of 2:55 AM on Tuesday 27 Jan 2015 (Local Time) from KFCI Reporting Station
Broken Clouds Broken Clouds  
Wind Chill: 24°   Ceiling: 6500
Heat Index: 32°   Visibility: 10mi
Dew Point: 16°   Wind: 9mph
Humidity: 51%   Direction: 360°N
Pressure: 29.72"   Gusts: NA
Location:  37.4513°N, 77.4708°W
Report Text: KFCI 270755Z AUTO 36008KT 10SM BKN065 00/M09 A2972 RMK AO1
Loading
Personal Weather Stations






























Interactive Weather Map New forecast layout! Learn more

10-Day Weather Forecast

Advertisements
Track Severe Weather on mobile